Time;durP1;ratioP1;P1;durP2;ratioP2;P2;SDS_P1;SDS_P2;PMS_P1;PMS_P2;Temp;Humidity;BMP_temperature;BMP_pressure;BME280_temperature;BME280_humidity;BME280_pressure;Samples;Min_cycle;Max_cycle;Signal;HPM_P1;HPM_P2
2023/05/31 00:02:08;;;;;;;2.42;1.90;;;24.50;37.70;;;;;;5068454;28;45189;-71
2023/05/31 00:04:35;;;;;;;2.30;2.00;;;24.50;37.80;;;;;;5068316;28;47320;-71
2023/05/31 00:07:02;;;;;;;2.25;1.70;;;24.50;37.70;;;;;;5068393;28;45376;-71
2023/05/31 00:09:29;;;;;;;2.03;1.80;;;24.50;37.80;;;;;;5068663;28;45327;-71
2023/05/31 00:11:56;;;;;;;1.75;1.60;;;24.40;37.80;;;;;;5068795;28;45411;-71
2023/05/31 00:14:24;;;;;;;2.10;1.80;;;24.40;37.80;;;;;;5068180;28;45233;-71
2023/05/31 00:16:51;;;;;;;1.90;1.70;;;24.40;37.80;;;;;;5068333;28;45457;-71
2023/05/31 00:19:18;;;;;;;1.67;1.40;;;24.40;37.80;;;;;;5068399;28;45462;-71
2023/05/31 00:21:45;;;;;;;3.65;1.90;;;24.30;37.90;;;;;;5068687;28;45361;-71
2023/05/31 00:24:12;;;;;;;1.80;1.58;;;24.30;37.90;;;;;;5067961;28;46833;-71
2023/05/31 00:26:39;;;;;;;1.70;1.60;;;24.20;38.00;;;;;;5068095;28;45358;-70
2023/05/31 00:29:06;;;;;;;2.65;1.77;;;24.20;38.10;;;;;;5068069;28;45282;-71
2023/05/31 00:31:34;;;;;;;1.73;1.63;;;24.20;38.00;;;;;;5068086;28;45317;-71
2023/05/31 00:34:01;;;;;;;2.10;1.90;;;24.20;38.00;;;;;;5067671;28;46393;-71
2023/05/31 00:36:27;;;;;;;2.53;1.70;;;24.10;38.10;;;;;;5067758;28;45265;-71
2023/05/31 00:38:54;;;;;;;2.20;1.90;;;24.10;38.10;;;;;;5067914;28;45258;-70
2023/05/31 00:41:21;;;;;;;2.13;1.73;;;24.10;38.20;;;;;;5068335;28;45708;-71
2023/05/31 00:43:48;;;;;;;2.50;1.70;;;24.10;38.20;;;;;;5067663;28;45750;-71
2023/05/31 00:46:20;;;;;;;2.08;1.83;;;24.00;38.10;;;;;;5067475;28;45328;-71
2023/05/31 00:48:49;;;;;;;2.15;1.92;;;24.10;38.30;;;;;;5067901;28;45518;-71
2023/05/31 00:51:15;;;;;;;1.73;1.63;;;24.10;38.10;;;;;;5068161;28;45416;-71
2023/05/31 00:53:44;;;;;;;3.35;1.90;;;24.10;38.20;;;;;;5067463;28;45809;-71
2023/05/31 00:56:11;;;;;;;1.63;1.52;;;24.00;38.20;;;;;;5067586;28;45379;-71
2023/05/31 00:58:37;;;;;;;1.67;1.58;;;24.00;38.30;;;;;;5068012;28;45377;-70
2023/05/31 01:01:04;;;;;;;2.45;1.67;;;23.90;38.20;;;;;;5068051;28;45374;-71
2023/05/31 01:03:31;;;;;;;1.67;1.50;;;24.00;38.40;;;;;;5067108;28;46275;-70
2023/05/31 01:06:00;;;;;;;3.13;1.83;;;23.90;38.30;;;;;;5067362;28;45303;-72
2023/05/31 01:08:26;;;;;;;1.95;1.48;;;23.90;38.40;;;;;;5067612;28;45556;-71
2023/05/31 01:10:53;;;;;;;2.00;1.50;;;23.90;38.30;;;;;;5067665;28;45372;-71
2023/05/31 01:13:22;;;;;;;2.20;1.80;;;23.90;38.20;;;;;;5067276;28;45521;-71
2023/05/31 01:15:57;;;;;;;2.28;1.60;;;23.90;38.30;;;;;;5067188;28;45255;-71
2023/05/31 01:18:26;;;;;;;1.60;1.50;;;23.80;38.30;;;;;;5067614;28;45281;-71
2023/05/31 01:20:54;;;;;;;1.55;1.40;;;23.80;38.30;;;;;;5067588;28;45459;-71
2023/05/31 01:23:36;;;;;;;1.65;1.55;;;23.80;38.30;;;;;;5067056;28;45526;-71
2023/05/31 01:26:33;;;;;;;2.58;1.70;;;23.80;38.40;;;;;;5067103;28;45529;-71
2023/05/31 01:29:02;;;;;;;1.67;1.58;;;23.70;38.30;;;;;;5062291;28;45321;-71
2023/05/31 01:31:29;;;;;;;2.90;1.77;;;23.80;38.40;;;;;;5067410;28;45119;-71
2023/05/31 01:33:56;;;;;;;2.17;1.77;;;23.70;38.40;;;;;;5066992;28;46625;-71
2023/05/31 01:36:23;;;;;;;1.75;1.60;;;23.70;38.40;;;;;;5066882;28;45605;-71
2023/05/31 01:38:49;;;;;;;2.15;1.27;;;23.70;38.40;;;;;;5067118;28;45457;-71
2023/05/31 01:41:16;;;;;;;1.92;1.52;;;23.70;38.40;;;;;;5067069;28;45344;-70
2023/05/31 01:43:45;;;;;;;1.90;1.70;;;23.60;38.40;;;;;;5066612;28;45472;-70
2023/05/31 01:46:14;;;;;;;2.28;1.75;;;23.60;38.60;;;;;;5066788;28;45415;-71
2023/05/31 01:48:41;;;;;;;2.10;1.55;;;23.60;38.60;;;;;;5067092;28;45255;-71
2023/05/31 01:51:09;;;;;;;2.03;1.52;;;23.60;38.60;;;;;;5067111;28;45428;-70
2023/05/31 01:53:36;;;;;;;3.40;1.60;;;23.60;38.60;;;;;;5066750;28;46478;-71
2023/05/31 01:56:03;;;;;;;1.55;1.45;;;23.50;38.70;;;;;;5066682;28;45311;-71
2023/05/31 01:58:31;;;;;;;1.90;1.60;;;23.50;38.70;;;;;;5066819;28;45358;-71
2023/05/31 02:00:58;;;;;;;2.13;1.80;;;23.50;38.70;;;;;;5066934;28;45316;-70
2023/05/31 02:03:26;;;;;;;1.70;1.60;;;23.50;38.70;;;;;;5066106;28;46267;-71
2023/05/31 02:05:56;;;;;;;2.53;1.60;;;23.50;38.80;;;;;;5066347;28;45333;-70
2023/05/31 02:08:24;;;;;;;1.83;1.67;;;23.40;39.40;;;;;;5066594;28;45316;-71
2023/05/31 02:10:51;;;;;;;2.00;1.73;;;23.50;38.80;;;;;;5066845;28;45316;-71
2023/05/31 02:13:18;;;;;;;1.65;1.55;;;23.40;38.80;;;;;;5066393;28;46434;-70
2023/05/31 02:15:45;;;;;;;1.88;1.60;;;23.40;38.70;;;;;;5066434;28;45542;-71
2023/05/31 02:18:12;;;;;;;2.17;1.70;;;23.30;38.80;;;;;;5066758;28;45270;-71
2023/05/31 02:20:40;;;;;;;1.60;1.50;;;23.30;38.80;;;;;;5065921;28;45261;-71
2023/05/31 02:23:07;;;;;;;2.20;1.80;;;23.30;38.80;;;;;;5066116;28;45329;-71
2023/05/31 02:25:34;;;;;;;2.05;1.60;;;23.30;38.90;;;;;;5066237;28;45340;-71
2023/05/31 02:28:00;;;;;;;2.10;1.60;;;23.30;38.90;;;;;;5066082;28;45515;-71
2023/05/31 02:30:27;;;;;;;4.10;1.58;;;23.30;38.90;;;;;;5066353;28;45352;-70
2023/05/31 02:32:54;;;;;;;1.63;1.52;;;23.30;38.90;;;;;;5066049;28;45270;-71
2023/05/31 02:35:21;;;;;;;1.80;1.40;;;23.20;38.80;;;;;;5066199;28;45279;-70
2023/05/31 02:37:49;;;;;;;1.85;1.60;;;23.20;38.90;;;;;;5066202;28;45340;-71
2023/05/31 02:40:16;;;;;;;2.00;1.55;;;23.20;39.00;;;;;;5066646;28;45305;-71
2023/05/31 02:42:43;;;;;;;2.58;1.50;;;23.20;38.90;;;;;;5066102;28;46464;-71
2023/05/31 02:45:11;;;;;;;2.40;1.67;;;23.20;39.00;;;;;;5065966;28;45257;-71
2023/05/31 02:47:38;;;;;;;1.27;1.17;;;23.20;39.10;;;;;;5066198;28;45576;-71
2023/05/31 02:50:07;;;;;;;1.35;1.25;;;23.20;39.10;;;;;;5066193;28;45448;-70
2023/05/31 02:52:34;;;;;;;2.75;1.60;;;23.10;39.10;;;;;;5065761;28;45295;-71
2023/05/31 02:55:02;;;;;;;1.65;1.55;;;23.10;39.10;;;;;;5066227;28;45265;-71
2023/05/31 02:57:29;;;;;;;1.98;1.80;;;23.10;39.10;;;;;;5066050;28;45398;-70
2023/05/31 02:59:57;;;;;;;1.75;1.60;;;23.10;39.10;;;;;;5066181;28;45307;-71
2023/05/31 03:02:24;;;;;;;2.25;1.60;;;23.10;39.10;;;;;;5065494;28;45329;-71
2023/05/31 03:04:52;;;;;;;2.28;1.60;;;23.00;39.20;;;;;;5065693;28;45376;-71
2023/05/31 03:07:19;;;;;;;1.80;1.52;;;23.00;39.20;;;;;;5066151;28;45347;-71
2023/05/31 03:09:45;;;;;;;2.28;1.67;;;23.00;39.20;;;;;;5065985;28;45297;-70
2023/05/31 03:12:13;;;;;;;1.95;1.42;;;23.00;39.30;;;;;;5065591;28;45329;-70
2023/05/31 03:14:40;;;;;;;1.52;1.42;;;23.00;39.30;;;;;;5065252;28;45371;-71
2023/05/31 03:17:07;;;;;;;1.95;1.60;;;22.90;39.30;;;;;;5065739;28;45149;-71
2023/05/31 03:19:34;;;;;;;1.70;1.60;;;22.90;39.30;;;;;;5065861;28;45316;-70
2023/05/31 03:22:01;;;;;;;1.58;1.48;;;22.90;39.40;;;;;;5065328;28;45388;-70
2023/05/31 03:24:28;;;;;;;3.17;1.52;;;22.90;39.30;;;;;;5065540;27;45320;-71
2023/05/31 03:26:55;;;;;;;2.15;1.50;;;22.80;39.30;;;;;;5065526;28;45349;-71
2023/05/31 03:29:24;;;;;;;1.50;1.40;;;22.80;39.40;;;;;;5065881;28;45296;-71
2023/05/31 03:31:50;;;;;;;2.42;1.50;;;22.80;39.40;;;;;;5065859;28;46336;-71
2023/05/31 03:34:18;;;;;;;2.00;1.70;;;22.70;39.40;;;;;;5068955;28;45328;-71
2023/05/31 03:36:45;;;;;;;1.60;1.20;;;22.80;39.50;;;;;;5068990;28;45273;-71
2023/05/31 03:39:11;;;;;;;1.42;1.33;;;22.70;39.40;;;;;;5069425;28;45476;-71
2023/05/31 03:41:38;;;;;;;1.73;1.30;;;22.70;39.50;;;;;;5068763;28;46847;-71
2023/05/31 03:44:05;;;;;;;1.75;1.40;;;22.70;39.50;;;;;;5068695;28;45416;-70
2023/05/31 03:46:33;;;;;;;1.48;1.20;;;22.70;39.50;;;;;;5068980;28;45320;-71
2023/05/31 03:49:01;;;;;;;1.48;1.38;;;22.70;39.60;;;;;;5069022;28;45428;-71
2023/05/31 03:51:27;;;;;;;2.42;1.70;;;22.60;39.50;;;;;;5068593;28;45378;-71
2023/05/31 03:53:54;;;;;;;4.75;1.70;;;22.60;39.50;;;;;;5068798;28;45293;-71
2023/05/31 03:56:21;;;;;;;1.73;1.60;;;22.60;39.60;;;;;;5068674;28;45330;-71
2023/05/31 03:58:48;;;;;;;1.92;1.60;;;22.60;39.50;;;;;;5068489;28;45281;-70
2023/05/31 04:01:15;;;;;;;2.28;1.75;;;22.60;39.60;;;;;;5068325;28;47486;-70
2023/05/31 04:03:44;;;;;;;2.72;1.65;;;22.60;39.70;;;;;;5068108;28;45965;-70
2023/05/31 04:06:10;;;;;;;1.67;1.40;;;22.60;39.60;;;;;;5068634;28;45371;-70
2023/05/31 04:08:37;;;;;;;2.22;1.65;;;22.60;39.70;;;;;;5068844;28;45487;-71
2023/05/31 04:11:05;;;;;;;1.33;1.20;;;22.60;39.60;;;;;;5068513;28;45569;-71
2023/05/31 04:13:32;;;;;;;2.40;1.60;;;22.60;39.70;;;;;;5068419;28;45209;-70
2023/05/31 04:15:59;;;;;;;2.42;1.52;;;22.60;39.70;;;;;;5068482;28;45326;-71
2023/05/31 04:18:26;;;;;;;3.08;1.65;;;22.50;39.70;;;;;;5068414;28;45406;-71
2023/05/31 04:20:54;;;;;;;1.70;1.55;;;22.50;39.70;;;;;;5068290;28;45807;-71
2023/05/31 04:23:21;;;;;;;1.85;1.48;;;22.50;39.70;;;;;;5068203;28;45300;-70
2023/05/31 04:25:48;;;;;;;1.90;1.38;;;22.50;39.70;;;;;;5068202;28;45176;-71
2023/05/31 04:28:18;;;;;;;1.88;1.60;;;22.50;39.80;;;;;;5068554;28;45557;-72
2023/05/31 04:30:46;;;;;;;2.20;1.30;;;22.50;39.80;;;;;;5067999;28;45240;-72
2023/05/31 04:33:13;;;;;;;1.98;1.38;;;22.50;39.80;;;;;;5068151;28;45224;-72
2023/05/31 04:35:40;;;;;;;1.83;1.33;;;22.40;39.80;;;;;;5068395;28;45354;-72
2023/05/31 04:38:09;;;;;;;1.33;1.23;;;22.40;39.80;;;;;;5068149;28;45420;-72
2023/05/31 04:40:36;;;;;;;1.25;1.13;;;22.40;39.80;;;;;;5067621;28;45580;-72
2023/05/31 04:43:03;;;;;;;1.20;1.10;;;22.40;39.80;;;;;;5067768;28;45319;-72
2023/05/31 04:45:30;;;;;;;1.45;1.30;;;22.40;39.90;;;;;;5067237;28;45436;-72
2023/05/31 04:47:57;;;;;;;1.88;1.30;;;22.40;39.90;;;;;;5068231;28;45885;-72
2023/05/31 04:50:24;;;;;;;3.60;1.38;;;22.30;39.80;;;;;;5068077;28;46382;-72
2023/05/31 04:52:52;;;;;;;1.50;1.40;;;22.30;39.80;;;;;;5065354;28;45344;-72
2023/05/31 04:55:20;;;;;;;1.38;1.27;;;22.30;39.80;;;;;;5068080;28;45560;-72
2023/05/31 04:57:47;;;;;;;1.45;1.25;;;22.30;39.90;;;;;;5068082;28;45470;-72
2023/05/31 05:00:15;;;;;;;1.90;1.50;;;22.30;39.80;;;;;;5067781;28;46721;-70
2023/05/31 05:02:43;;;;;;;1.92;1.38;;;22.30;39.90;;;;;;5067448;28;45189;-70
2023/05/31 05:05:10;;;;;;;1.80;1.50;;;22.30;39.90;;;;;;5067736;28;45463;-72
2023/05/31 05:07:37;;;;;;;1.73;1.20;;;22.30;39.90;;;;;;5067956;28;45395;-73
2023/05/31 05:10:04;;;;;;;1.52;1.42;;;22.30;39.90;;;;;;5067551;28;45455;-70
2023/05/31 05:12:32;;;;;;;1.60;1.35;;;22.30;39.90;;;;;;5067377;28;45303;-72
2023/05/31 05:14:59;;;;;;;1.58;1.35;;;22.30;40.50;;;;;;5067489;28;45288;-71
2023/05/31 05:17:26;;;;;;;1.30;1.20;;;22.30;40.00;;;;;;5067868;28;45230;-72
2023/05/31 05:19:53;;;;;;;1.42;1.30;;;22.30;40.00;;;;;;5067389;28;46656;-71
2023/05/31 05:22:20;;;;;;;2.35;1.38;;;22.30;40.00;;;;;;5067493;28;45261;-70
2023/05/31 05:24:47;;;;;;;1.40;1.30;;;22.30;40.00;;;;;;5067387;28;45332;-72
2023/05/31 05:27:14;;;;;;;1.70;1.40;;;22.30;40.00;;;;;;5067523;28;45299;-72
2023/05/31 05:29:42;;;;;;;1.17;1.08;;;22.20;39.90;;;;;;5066538;28;46772;-71
2023/05/31 05:32:09;;;;;;;1.30;1.20;;;22.20;40.60;;;;;;5067293;28;45371;-72
2023/05/31 05:34:36;;;;;;;2.00;1.60;;;22.20;40.00;;;;;;5067267;28;45277;-71
2023/05/31 05:37:02;;;;;;;1.67;1.20;;;22.20;40.00;;;;;;5067601;28;45261;-72
2023/05/31 05:39:29;;;;;;;1.85;1.40;;;22.20;40.00;;;;;;5067357;28;46250;-71
2023/05/31 05:41:56;;;;;;;1.25;1.23;;;22.20;40.00;;;;;;5066942;28;45266;-72
2023/05/31 05:44:23;;;;;;;1.48;1.30;;;22.20;40.00;;;;;;5067080;28;45382;-72
2023/05/31 05:46:52;;;;;;;2.50;1.40;;;22.30;40.10;;;;;;5067257;28;45415;-70
2023/05/31 05:49:19;;;;;;;1.40;1.30;;;22.30;40.10;;;;;;5066719;28;45723;-70
2023/05/31 05:51:45;;;;;;;1.45;1.35;;;22.30;40.10;;;;;;5066564;28;45361;-70
2023/05/31 05:54:12;;;;;;;1.45;1.35;;;22.30;40.10;;;;;;5067186;28;45294;-70
2023/05/31 05:56:39;;;;;;;2.03;1.70;;;22.30;40.10;;;;;;5063069;28;45471;-72
2023/05/31 05:59:06;;;;;;;1.30;1.20;;;22.30;40.10;;;;;;5066631;28;46412;-70
2023/05/31 06:01:33;;;;;;;1.65;1.30;;;22.30;40.10;;;;;;5066596;28;45344;-69
2023/05/31 06:04:01;;;;;;;1.80;1.45;;;22.30;40.10;;;;;;5066804;28;45292;-70
2023/05/31 06:06:28;;;;;;;2.33;1.50;;;22.30;40.10;;;;;;5066546;28;45563;-69
2023/05/31 06:08:55;;;;;;;1.85;1.40;;;22.30;40.00;;;;;;5066253;28;46468;-70
2023/05/31 06:11:22;;;;;;;1.95;1.30;;;22.30;40.00;;;;;;5066706;28;45383;-70
2023/05/31 06:13:49;;;;;;;1.63;1.40;;;22.30;40.10;;;;;;5066128;28;45265;-69
2023/05/31 06:16:16;;;;;;;1.40;1.30;;;22.30;40.00;;;;;;5066608;28;45412;-70
2023/05/31 06:18:43;;;;;;;1.52;1.42;;;22.30;40.00;;;;;;5066531;28;45280;-71
2023/05/31 06:21:11;;;;;;;2.22;1.42;;;22.30;40.10;;;;;;5066436;28;45411;-70
2023/05/31 06:23:38;;;;;;;4.35;2.28;;;22.30;40.00;;;;;;5066289;28;45307;-71
2023/05/31 06:26:05;;;;;;;2.03;1.60;;;22.30;40.10;;;;;;5066319;28;45459;-72
2023/05/31 06:28:32;;;;;;;2.20;1.20;;;22.30;40.00;;;;;;5066103;28;45320;-72
2023/05/31 06:31:00;;;;;;;1.40;1.10;;;22.30;40.00;;;;;;5065889;28;45311;-71
2023/05/31 06:33:27;;;;;;;2.42;1.52;;;22.30;40.00;;;;;;5066163;28;45331;-71
2023/05/31 06:35:54;;;;;;;2.83;1.30;;;22.40;40.00;;;;;;5066361;28;45428;-72
2023/05/31 06:38:22;;;;;;;2.20;1.70;;;22.40;40.00;;;;;;5065809;28;46391;-72
2023/05/31 06:40:49;;;;;;;1.33;1.20;;;22.40;40.10;;;;;;5065960;28;45272;-72
2023/05/31 06:43:16;;;;;;;2.10;1.20;;;22.40;40.00;;;;;;5065907;28;45365;-72
2023/05/31 06:45:43;;;;;;;1.45;1.35;;;22.40;40.00;;;;;;5065938;28;45123;-72
2023/05/31 06:48:10;;;;;;;1.73;1.40;;;22.40;40.00;;;;;;5065958;28;45225;-72
2023/05/31 06:50:36;;;;;;;2.75;1.33;;;22.40;40.00;;;;;;5063391;28;45318;-71
2023/05/31 06:53:03;;;;;;;2.15;1.50;;;22.40;40.00;;;;;;5065864;28;45333;-71
2023/05/31 06:55:31;;;;;;;1.73;1.45;;;22.40;40.00;;;;;;5065728;28;45486;-71
2023/05/31 06:57:58;;;;;;;1.38;1.23;;;22.40;40.00;;;;;;5065333;28;45492;-71
2023/05/31 07:00:25;;;;;;;1.40;1.30;;;22.50;40.10;;;;;;5065772;28;45457;-71
2023/05/31 07:02:52;;;;;;;1.60;1.50;;;22.50;40.10;;;;;;5065338;28;45379;-71
2023/05/31 07:05:19;;;;;;;1.63;1.48;;;22.50;40.10;;;;;;5065750;28;45715;-71
2023/05/31 07:07:46;;;;;;;1.70;1.55;;;22.50;40.10;;;;;;5064901;28;45346;-72
2023/05/31 07:10:13;;;;;;;2.55;1.67;;;22.50;40.10;;;;;;5065362;28;46047;-72
2023/05/31 07:12:41;;;;;;;1.65;1.35;;;22.50;40.10;;;;;;5063029;28;45181;-72
2023/05/31 07:15:09;;;;;;;1.40;1.30;;;22.50;40.10;;;;;;5065723;28;45292;-72
2023/05/31 07:17:36;;;;;;;1.40;1.30;;;22.60;40.10;;;;;;5065249;28;46658;-71
2023/05/31 07:20:05;;;;;;;2.15;1.30;;;22.60;40.10;;;;;;5065214;28;45303;-71
2023/05/31 07:22:32;;;;;;;1.92;1.30;;;22.60;40.10;;;;;;5065328;28;45460;-71
2023/05/31 07:24:58;;;;;;;2.28;1.30;;;22.60;40.10;;;;;;5065266;28;45467;-71
2023/05/31 07:27:25;;;;;;;2.28;1.30;;;22.60;40.10;;;;;;5065041;28;46297;-71
2023/05/31 07:29:53;;;;;;;3.88;1.25;;;22.60;40.10;;;;;;5065317;28;45327;-71
2023/05/31 07:32:20;;;;;;;1.30;1.20;;;22.60;40.10;;;;;;5065348;28;45249;-72
2023/05/31 07:34:47;;;;;;;1.55;1.45;;;22.70;40.20;;;;;;5065148;28;45634;-72
2023/05/31 07:37:14;;;;;;;1.67;1.42;;;22.70;40.20;;;;;;5064901;28;45554;-72
2023/05/31 07:39:41;;;;;;;1.58;1.33;;;22.70;40.10;;;;;;5065182;28;45261;-71
2023/05/31 07:42:08;;;;;;;2.83;1.30;;;22.70;40.10;;;;;;5064795;28;45328;-71
2023/05/31 07:44:35;;;;;;;2.95;1.40;;;22.70;40.10;;;;;;5065628;28;45205;-71
2023/05/31 07:47:03;;;;;;;1.95;1.42;;;22.80;40.20;;;;;;5064635;28;46472;-71
2023/05/31 07:49:30;;;;;;;1.40;1.30;;;22.80;40.10;;;;;;5064951;28;45321;-72
2023/05/31 07:51:57;;;;;;;1.80;1.30;;;22.80;40.10;;;;;;5065381;28;45439;-71
2023/05/31 07:54:23;;;;;;;2.13;1.50;;;22.80;40.10;;;;;;5065077;28;45390;-71
2023/05/31 07:56:50;;;;;;;1.83;1.40;;;22.90;40.10;;;;;;5064704;28;46723;-71
2023/05/31 07:59:17;;;;;;;2.22;1.40;;;22.90;40.70;;;;;;5064808;28;45337;-72
2023/05/31 08:01:46;;;;;;;1.88;1.42;;;22.90;40.00;;;;;;5064738;28;45267;-72
2023/05/31 08:04:15;;;;;;;3.17;1.65;;;22.90;40.00;;;;;;5064876;28;45515;-71
2023/05/31 08:06:42;;;;;;;1.50;1.40;;;22.90;40.00;;;;;;5064396;28;46288;-71
2023/05/31 08:09:09;;;;;;;1.45;1.27;;;23.00;40.00;;;;;;5064377;28;46407;-71
2023/05/31 08:11:36;;;;;;;1.30;1.20;;;23.00;40.20;;;;;;5065073;28;45400;-72
2023/05/31 08:14:03;;;;;;;1.20;1.10;;;23.00;40.20;;;;;;5064910;28;45348;-72
2023/05/31 08:16:30;;;;;;;1.23;1.13;;;23.00;40.10;;;;;;5064399;28;46643;-71
2023/05/31 08:18:57;;;;;;;1.30;1.23;;;23.00;40.10;;;;;;5065067;28;45238;-72
2023/05/31 08:21:25;;;;;;;1.60;1.40;;;23.10;40.00;;;;;;5068109;28;45346;-71
2023/05/31 08:23:52;;;;;;;1.45;1.20;;;23.10;40.00;;;;;;5068272;28;45288;-72
2023/05/31 08:26:19;;;;;;;1.70;1.25;;;23.10;39.90;;;;;;5067364;28;46201;-70
2023/05/31 08:28:46;;;;;;;2.05;1.48;;;23.20;39.80;;;;;;5067919;28;45272;-69
2023/05/31 08:31:13;;;;;;;1.80;1.30;;;23.20;39.90;;;;;;5068158;28;45361;-69
2023/05/31 08:33:41;;;;;;;1.80;1.52;;;23.20;39.70;;;;;;5068184;28;45316;-70
2023/05/31 08:36:08;;;;;;;1.73;1.63;;;23.20;39.70;;;;;;5067414;28;46393;-70
2023/05/31 08:38:37;;;;;;;2.20;1.33;;;23.30;39.80;;;;;;5067981;28;45266;-70
2023/05/31 08:41:03;;;;;;;1.50;1.15;;;23.30;39.70;;;;;;5068261;28;45406;-70
2023/05/31 08:43:30;;;;;;;3.00;1.67;;;23.30;40.30;;;;;;5068116;28;45530;-69
2023/05/31 08:45:57;;;;;;;1.50;1.40;;;23.30;39.80;;;;;;5067305;28;45260;-70
2023/05/31 08:48:27;;;;;;;1.75;1.20;;;23.40;40.40;;;;;;5067687;28;45237;-69
2023/05/31 08:50:54;;;;;;;1.42;1.33;;;23.40;39.80;;;;;;5067798;28;45560;-70
2023/05/31 08:53:20;;;;;;;2.00;1.40;;;23.40;39.80;;;;;;5067751;28;45407;-69
2023/05/31 08:55:50;;;;;;;1.80;1.50;;;23.50;39.80;;;;;;5067394;28;46288;-70
2023/05/31 08:58:17;;;;;;;1.48;1.38;;;23.50;39.80;;;;;;5067587;28;45345;-70
2023/05/31 09:00:44;;;;;;;4.15;1.75;;;23.50;39.80;;;;;;5067421;28;45275;-69
2023/05/31 09:03:11;;;;;;;2.65;1.65;;;23.50;39.70;;;;;;5067501;28;45613;-69
2023/05/31 09:05:38;;;;;;;3.25;1.77;;;23.50;39.70;;;;;;5067104;28;45319;-70
2023/05/31 09:08:05;;;;;;;2.20;1.60;;;23.60;39.70;;;;;;5067505;28;45447;-69
2023/05/31 09:10:32;;;;;;;1.63;1.50;;;23.60;39.70;;;;;;5067427;28;45412;-70
2023/05/31 09:13:00;;;;;;;2.03;1.63;;;23.60;39.70;;;;;;5067242;28;45318;-70
2023/05/31 09:15:27;;;;;;;2.03;1.63;;;23.60;39.80;;;;;;5064385;28;45440;-70
2023/05/31 09:17:54;;;;;;;2.65;1.70;;;23.70;39.80;;;;;;5067535;28;45322;-70
2023/05/31 09:20:21;;;;;;;2.05;1.85;;;23.70;39.80;;;;;;5067059;28;45393;-70
2023/05/31 09:22:48;;;;;;;2.25;1.40;;;23.70;39.80;;;;;;5064653;28;45324;-70
2023/05/31 09:25:15;;;;;;;1.60;1.50;;;23.80;39.90;;;;;;5067023;28;45489;-70
2023/05/31 09:27:42;;;;;;;2.60;1.45;;;23.80;39.80;;;;;;5067134;28;45300;-70
2023/05/31 09:30:12;;;;;;;2.35;1.50;;;23.80;39.80;;;;;;5067280;28;45335;-70
2023/05/31 09:32:39;;;;;;;2.28;1.50;;;23.80;39.80;;;;;;5067147;28;45302;-70
2023/05/31 09:35:11;;;;;;;1.67;1.50;;;23.90;39.90;;;;;;5066743;28;46403;-70
2023/05/31 09:37:43;;;;;;;1.63;1.52;;;23.90;39.90;;;;;;5066708;28;45419;-70
2023/05/31 09:40:11;;;;;;;1.52;1.40;;;23.90;39.80;;;;;;5067048;28;45324;-70
2023/05/31 09:42:37;;;;;;;2.47;1.50;;;24.00;39.90;;;;;;5066903;28;45312;-69
2023/05/31 09:45:05;;;;;;;2.65;1.63;;;24.00;39.80;;;;;;5066517;28;45479;-69
2023/05/31 09:47:33;;;;;;;1.85;1.48;;;24.00;39.80;;;;;;5066281;28;45328;-70
2023/05/31 09:50:00;;;;;;;1.50;1.40;;;24.10;39.80;;;;;;5066757;28;45276;-70
2023/05/31 09:52:28;;;;;;;1.90;1.60;;;24.10;39.80;;;;;;5066826;28;45428;-70
2023/05/31 09:54:56;;;;;;;1.83;1.50;;;24.10;39.70;;;;;;5066302;28;47051;-69
2023/05/31 09:57:33;;;;;;;2.22;1.73;;;24.10;39.70;;;;;;5066134;28;45361;-69
2023/05/31 10:00:00;;;;;;;1.85;1.45;;;24.20;39.80;;;;;;5066612;28;45352;-70
2023/05/31 10:02:27;;;;;;;1.67;1.42;;;24.20;39.70;;;;;;5066549;28;45662;-70
2023/05/31 10:04:57;;;;;;;2.25;1.50;;;24.20;39.70;;;;;;5066001;28;45763;-70
2023/05/31 10:07:23;;;;;;;1.60;1.50;;;24.30;39.70;;;;;;5065992;28;45350;-70
2023/05/31 10:09:50;;;;;;;1.77;1.60;;;24.30;39.70;;;;;;5066242;28;45328;-71
2023/05/31 10:12:18;;;;;;;2.20;1.45;;;24.30;39.60;;;;;;5066475;28;45409;-71
2023/05/31 10:14:47;;;;;;;3.55;1.92;;;24.40;39.60;;;;;;5066289;28;46498;-71
2023/05/31 10:17:15;;;;;;;3.28;1.67;;;24.40;39.50;;;;;;5065919;28;45288;-70
2023/05/31 10:19:43;;;;;;;2.47;1.63;;;24.40;39.50;;;;;;5066083;28;45304;-70
2023/05/31 10:22:12;;;;;;;1.85;1.42;;;24.50;39.50;;;;;;5065819;28;45404;-70
2023/05/31 10:24:44;;;;;;;2.70;1.90;;;24.50;39.40;;;;;;5065647;28;45663;-70
2023/05/31 10:27:13;;;;;;;2.97;1.80;;;24.50;39.40;;;;;;5065595;28;45324;-70
2023/05/31 10:29:42;;;;;;;5.90;1.80;;;24.60;39.40;;;;;;5065789;28;45266;-70
2023/05/31 10:32:11;;;;;;;2.80;1.80;;;24.60;39.30;;;;;;5065675;28;45516;-69
2023/05/31 10:34:38;;;;;;;5.68;1.98;;;24.70;39.30;;;;;;5065708;28;46174;-70
2023/05/31 10:37:06;;;;;;;2.08;1.85;;;24.70;38.80;;;;;;5065516;28;45334;-71
2023/05/31 10:39:35;;;;;;;2.20;2.00;;;24.70;38.40;;;;;;5065930;28;45372;-71
2023/05/31 10:42:07;;;;;;;3.28;2.00;;;24.80;38.40;;;;;;5065541;28;45438;-71
2023/05/31 10:44:38;;;;;;;3.10;1.90;;;24.90;38.60;;;;;;5065626;28;47345;-71
2023/05/31 10:47:09;;;;;;;3.15;2.05;;;24.90;38.50;;;;;;5065120;28;45317;-71
2023/05/31 10:49:36;;;;;;;3.20;2.05;;;24.90;39.00;;;;;;5065664;28;45512;-69
2023/05/31 10:52:06;;;;;;;2.40;1.98;;;25.00;38.50;;;;;;5065769;28;45437;-71
2023/05/31 10:54:34;;;;;;;2.22;1.73;;;25.00;38.40;;;;;;5065305;28;46386;-69
2023/05/31 10:57:05;;;;;;;2.92;1.75;;;25.10;38.40;;;;;;5065256;28;45497;-68
2023/05/31 10:59:40;;;;;;;2.10;1.90;;;25.10;38.50;;;;;;5065507;28;45246;-69
2023/05/31 11:02:07;;;;;;;2.20;2.00;;;25.20;38.40;;;;;;5065237;28;45260;-68
2023/05/31 11:04:34;;;;;;;2.83;1.73;;;25.20;38.40;;;;;;5065179;28;45654;-69
2023/05/31 11:07:14;;;;;;;2.45;1.90;;;25.20;38.40;;;;;;5064942;28;45488;-69
2023/05/31 11:09:43;;;;;;;2.63;1.90;;;25.30;38.40;;;;;;5063053;28;45256;-69
2023/05/31 11:12:13;;;;;;;2.28;1.83;;;25.30;38.40;;;;;;5065419;28;45503;-69
2023/05/31 11:14:39;;;;;;;2.08;1.88;;;25.40;38.40;;;;;;5065079;28;46761;-70
2023/05/31 11:17:16;;;;;;;3.22;1.70;;;25.40;38.30;;;;;;5064521;28;45315;-70
2023/05/31 11:19:43;;;;;;;2.25;1.95;;;25.50;38.30;;;;;;5065653;28;45253;-70
2023/05/31 11:22:10;;;;;;;3.15;2.22;;;25.50;38.20;;;;;;5063799;28;45485;-71
2023/05/31 11:24:38;;;;;;;3.55;2.10;;;25.60;38.10;;;;;;5065013;28;46472;-70
2023/05/31 11:27:07;;;;;;;5.30;2.40;;;25.70;38.40;;;;;;5064552;28;45266;-70
2023/05/31 11:30:01;;;;;;;4.45;2.10;;;25.70;38.50;;;;;;5064420;28;45332;-70
2023/05/31 11:32:56;;;;;;;3.33;2.17;;;25.90;38.10;;;;;;5063747;28;45319;-70
2023/05/31 11:35:23;;;;;;;2.75;2.15;;;25.90;34.50;;;;;;5065545;28;45827;-70
2023/05/31 11:37:51;;;;;;;2.97;2.00;;;26.00;33.80;;;;;;5062910;28;45299;-70
2023/05/31 11:40:18;;;;;;;3.03;2.08;;;26.00;33.10;;;;;;5065523;28;45612;-71
2023/05/31 11:42:46;;;;;;;4.40;2.20;;;26.10;33.20;;;;;;5065672;28;45319;-70
2023/05/31 11:45:14;;;;;;;3.72;2.30;;;26.10;33.00;;;;;;5064893;28;45741;-70
2023/05/31 11:47:46;;;;;;;3.38;2.38;;;26.20;33.00;;;;;;5064956;28;45314;-70
2023/05/31 11:50:15;;;;;;;4.05;2.38;;;26.30;32.50;;;;;;5065254;28;45315;-70
2023/05/31 11:52:41;;;;;;;2.15;1.90;;;26.40;32.10;;;;;;5065171;28;45521;-70
2023/05/31 11:55:09;;;;;;;2.50;2.17;;;26.50;32.30;;;;;;5068804;28;45311;-69
2023/05/31 11:57:41;;;;;;;4.38;2.45;;;26.50;32.40;;;;;;5068257;28;45335;-69
2023/05/31 12:00:11;;;;;;;4.97;2.45;;;26.60;32.50;;;;;;5068441;28;45358;-69
2023/05/31 12:02:39;;;;;;;3.83;2.20;;;26.60;32.10;;;;;;5067686;28;45335;-69
2023/05/31 12:05:06;;;;;;;3.05;2.20;;;26.80;31.90;;;;;;5068690;28;46681;-70
2023/05/31 12:07:33;;;;;;;2.53;2.30;;;26.80;31.70;;;;;;5068110;28;45423;-70
2023/05/31 12:10:00;;;;;;;2.65;2.03;;;26.90;31.30;;;;;;5068554;28;45268;-69
2023/05/31 12:12:27;;;;;;;4.68;2.40;;;26.90;31.10;;;;;;5068705;28;45327;-69
2023/05/31 12:14:54;;;;;;;3.10;2.47;;;27.00;30.40;;;;;;5068628;28;46612;-70
2023/05/31 12:17:23;;;;;;;4.22;2.00;;;27.10;30.60;;;;;;5059161;28;45485;-69
2023/05/31 12:19:49;;;;;;;5.10;2.20;;;27.10;30.40;;;;;;5065695;28;45373;-70
2023/05/31 12:22:16;;;;;;;3.90;2.40;;;27.20;30.50;;;;;;5068860;28;45183;-69
2023/05/31 12:24:48;;;;;;;4.75;2.33;;;27.30;30.90;;;;;;5068324;28;46411;-69
2023/05/31 12:27:16;;;;;;;3.45;2.00;;;27.30;30.30;;;;;;5063384;28;45351;-70
2023/05/31 12:29:43;;;;;;;2.88;2.20;;;27.30;30.50;;;;;;5069173;28;45426;-70
2023/05/31 12:32:10;;;;;;;8.88;2.50;;;27.50;30.20;;;;;;5069039;28;45451;-70
2023/05/31 12:34:39;;;;;;;2.97;2.25;;;27.60;29.50;;;;;;5062824;28;45547;-71
2023/05/31 12:37:07;;;;;;;3.00;2.03;;;27.60;29.80;;;;;;5065081;28;45356;-70
2023/05/31 12:39:34;;;;;;;5.10;2.10;;;27.70;29.90;;;;;;5069288;28;45262;-70
2023/05/31 12:42:01;;;;;;;4.75;2.22;;;27.80;29.70;;;;;;5067299;28;45315;-69
2023/05/31 12:44:30;;;;;;;3.78;2.00;;;27.90;29.20;;;;;;5062019;27;45478;-69
2023/05/31 12:47:00;;;;;;;4.43;2.25;;;27.90;29.00;;;;;;5065946;28;45343;-69
2023/05/31 12:49:28;;;;;;;3.78;2.10;;;28.00;28.80;;;;;;5067870;28;45371;-70
2023/05/31 12:52:00;;;;;;;3.85;2.10;;;28.10;28.70;;;;;;5067866;28;45253;-72